Terminal Aerodrome Forecast
Issued by NWS Portland, ME

Home | Current Version | Previous Version | Text Only | Print | Product List | Glossary On
Versions: 1 2 3 4 5 6 7 8 9 10 11 12 13 14 15 16 17 18 19 20 21 22 23 24
442
FTUS41 KGYX 281728
TAFPWM
TAF
KPWM 281728Z 2818/2918 VRB03KT P6SM VCSH OVC008
     FM282100 VRB03KT 3SM -SHRA BR OVC005
     FM290800 35004KT 2SM -DZ BR OVC005
     FM291400 34008KT P6SM BKN035=

USA.gov is the U.S. government's official web portal to all federal, state and local government web resources and services.